In English

Senaste nytt

Välkommen till sjöflygsäsongen 2019 hälsar vi på Täby Sjöflygklubb.

Kontakt

Pontongränd 9
183 68 Täby
ePost: kontakt@tsk.nu


Plusgiro: 268063-5
Bankgiro: 529-9961
Swish: 1234944948

__________________________ Observera att klubben inte har något samarbete med leverantörer av s.k upplevelse-flygningar. Har du fått eller köpt en sådan vänligen kontakta respektive företag med frågor och bokningar.

Inför kommande flygsäsong

  • Vilka regler gäller beträffande alkoholkonsumtion och flygtjänst?
  • Vad gäller för flygning i fjällområde?
  • Vad betyder ESNQ 071250Z AUTO 33015G25KT 9999 /// 04/M10 Q0998?
  • Vet du vilka krafter som verkar vid stegtaxning mot vinden och med vinden?
  • Behind landing aircraft Line-up” Hur läser du tillbaka den klareringen?

Är du osäker på dessa punkter eller vill testa dina teorikunskaper finns två quiz att gå igenom. Informationen om årlig klubbcheck är också uppdaterad.

Comments are closed.